sensor_id;sensor_type;location;lat;lon;timestamp;pressure;altitude;pressure_sealevel;temperature;humidity
59859;BME280;45734;53.648;9.566;2022-10-22T00:03:31;100892.63;;;13.58;100.00
59859;BME280;45734;53.648;9.566;2022-10-22T00:08:31;100894.28;;;13.59;100.00
59859;BME280;45734;53.648;9.566;2022-10-22T00:13:31;100907.81;;;13.58;100.00
59859;BME280;45734;53.648;9.566;2022-10-22T00:18:32;100900.00;;;13.56;100.00
59859;BME280;45734;53.648;9.566;2022-10-22T00:23:32;100894.81;;;13.55;100.00
59859;BME280;45734;53.648;9.566;2022-10-22T00:28:33;100900.72;;;13.50;100.00
59859;BME280;45734;53.648;9.566;2022-10-22T00:33:33;100903.78;;;13.39;100.00
59859;BME280;45734;53.648;9.566;2022-10-22T00:38:33;100910.00;;;13.23;100.00
59859;BME280;45734;53.648;9.566;2022-10-22T00:43:56;100906.56;;;13.06;100.00
59859;BME280;45734;53.648;9.566;2022-10-22T00:48:59;100911.63;;;12.93;100.00
59859;BME280;45734;53.648;9.566;2022-10-22T00:54:03;100915.03;;;12.71;100.00
59859;BME280;45734;53.648;9.566;2022-10-22T00:59:06;100916.59;;;12.49;100.00
59859;BME280;45734;53.648;9.566;2022-10-22T01:04:06;100919.13;;;12.34;100.00
59859;BME280;45734;53.648;9.566;2022-10-22T01:14:34;100916.63;;;11.99;100.00
59859;BME280;45734;53.648;9.566;2022-10-22T01:20:04;100920.63;;;11.87;100.00
59859;BME280;45734;53.648;9.566;2022-10-22T01:30:28;100926.38;;;11.74;100.00
59859;BME280;45734;53.648;9.566;2022-10-22T01:35:33;100932.22;;;11.70;100.00
59859;BME280;45734;53.648;9.566;2022-10-22T01:40:34;100929.72;;;11.68;100.00
59859;BME280;45734;53.648;9.566;2022-10-22T01:45:39;100920.38;;;11.64;100.00
59859;BME280;45734;53.648;9.566;2022-10-22T01:56:21;100914.31;;;11.46;100.00
59859;BME280;45734;53.648;9.566;2022-10-22T02:06:32;100909.31;;;11.43;100.00
59859;BME280;45734;53.648;9.566;2022-10-22T02:11:35;100906.00;;;11.41;100.00
59859;BME280;45734;53.648;9.566;2022-10-22T02:16:40;100910.31;;;11.42;100.00
59859;BME280;45734;53.648;9.566;2022-10-22T02:21:41;100902.97;;;11.36;100.00
59859;BME280;45734;53.648;9.566;2022-10-22T02:26:54;100895.94;;;11.26;100.00
59859;BME280;45734;53.648;9.566;2022-10-22T02:31:57;100887.94;;;11.26;100.00
59859;BME280;45734;53.648;9.566;2022-10-22T02:37:01;100883.41;;;11.19;100.00
59859;BME280;45734;53.648;9.566;2022-10-22T02:42:02;100882.56;;;11.18;100.00
59859;BME280;45734;53.648;9.566;2022-10-22T02:47:03;100893.06;;;11.12;100.00
59859;BME280;45734;53.648;9.566;2022-10-22T02:52:03;100889.84;;;11.08;100.00
59859;BME280;45734;53.648;9.566;2022-10-22T02:57:03;100896.88;;;11.09;100.00
59859;BME280;45734;53.648;9.566;2022-10-22T03:02:04;100890.53;;;11.10;100.00
59859;BME280;45734;53.648;9.566;2022-10-22T03:07:04;100903.84;;;11.02;100.00
59859;BME280;45734;53.648;9.566;2022-10-22T03:12:04;100907.28;;;10.86;100.00
59859;BME280;45734;53.648;9.566;2022-10-22T03:17:05;100906.72;;;10.74;100.00
59859;BME280;45734;53.648;9.566;2022-10-22T03:22:09;100919.28;;;10.64;100.00
59859;BME280;45734;53.648;9.566;2022-10-22T03:27:11;100922.91;;;10.55;100.00
59859;BME280;45734;53.648;9.566;2022-10-22T03:32:14;100922.38;;;10.51;100.00
59859;BME280;45734;53.648;9.566;2022-10-22T03:37:14;100933.88;;;10.52;100.00
59859;BME280;45734;53.648;9.566;2022-10-22T03:42:14;100942.59;;;10.62;100.00
59859;BME280;45734;53.648;9.566;2022-10-22T03:47:16;100946.63;;;10.66;100.00
59859;BME280;45734;53.648;9.566;2022-10-22T03:52:16;100955.81;;;10.72;100.00
59859;BME280;45734;53.648;9.566;2022-10-22T03:57:16;100955.63;;;10.73;100.00
59859;BME280;45734;53.648;9.566;2022-10-22T04:02:17;100959.47;;;10.71;100.00
59859;BME280;45734;53.648;9.566;2022-10-22T04:07:17;100966.59;;;10.70;100.00
59859;BME280;45734;53.648;9.566;2022-10-22T04:12:17;100963.59;;;10.65;100.00
59859;BME280;45734;53.648;9.566;2022-10-22T04:17:17;100959.41;;;10.62;100.00
59859;BME280;45734;53.648;9.566;2022-10-22T04:22:18;100960.25;;;10.63;100.00
59859;BME280;45734;53.648;9.566;2022-10-22T04:27:18;100972.38;;;10.57;100.00
59859;BME280;45734;53.648;9.566;2022-10-22T04:32:18;100968.13;;;10.47;100.00
59859;BME280;45734;53.648;9.566;2022-10-22T04:37:19;100964.09;;;10.42;100.00
59859;BME280;45734;53.648;9.566;2022-10-22T04:42:19;100956.34;;;10.31;100.00
59859;BME280;45734;53.648;9.566;2022-10-22T04:47:19;100952.91;;;10.03;100.00
59859;BME280;45734;53.648;9.566;2022-10-22T04:52:20;100954.22;;;9.81;100.00
59859;BME280;45734;53.648;9.566;2022-10-22T04:57:20;100952.75;;;9.69;100.00
59859;BME280;45734;53.648;9.566;2022-10-22T05:02:20;100957.00;;;9.62;100.00
59859;BME280;45734;53.648;9.566;2022-10-22T05:07:21;100960.94;;;9.58;100.00
59859;BME280;45734;53.648;9.566;2022-10-22T05:12:22;100968.63;;;9.61;100.00
59859;BME280;45734;53.648;9.566;2022-10-22T05:17:23;100972.94;;;9.62;100.00
59859;BME280;45734;53.648;9.566;2022-10-22T05:22:23;100980.63;;;9.65;100.00
59859;BME280;45734;53.648;9.566;2022-10-22T05:27:23;100978.66;;;9.67;100.00
59859;BME280;45734;53.648;9.566;2022-10-22T05:32:24;100971.50;;;9.67;100.00
59859;BME280;45734;53.648;9.566;2022-10-22T05:37:24;100979.50;;;9.67;100.00
59859;BME280;45734;53.648;9.566;2022-10-22T05:42:25;100978.28;;;9.62;100.00
59859;BME280;45734;53.648;9.566;2022-10-22T05:47:28;100979.50;;;9.67;100.00
59859;BME280;45734;53.648;9.566;2022-10-22T05:52:28;100980.03;;;9.71;100.00
59859;BME280;45734;53.648;9.566;2022-10-22T05:57:28;100982.84;;;9.69;100.00
59859;BME280;45734;53.648;9.566;2022-10-22T06:02:29;100986.66;;;9.67;100.00
59859;BME280;45734;53.648;9.566;2022-10-22T06:07:29;100984.28;;;9.64;100.00
59859;BME280;45734;53.648;9.566;2022-10-22T06:12:29;100982.22;;;9.58;100.00
59859;BME280;45734;53.648;9.566;2022-10-22T06:17:29;100994.13;;;9.53;100.00
59859;BME280;45734;53.648;9.566;2022-10-22T06:22:30;101006.75;;;9.51;100.00
59859;BME280;45734;53.648;9.566;2022-10-22T06:27:30;101006.00;;;9.59;100.00
59859;BME280;45734;53.648;9.566;2022-10-22T06:32:31;101007.53;;;9.62;100.00
59859;BME280;45734;53.648;9.566;2022-10-22T06:37:31;101013.25;;;9.67;100.00
59859;BME280;45734;53.648;9.566;2022-10-22T06:42:31;101027.31;;;9.77;100.00
59859;BME280;45734;53.648;9.566;2022-10-22T06:47:31;101027.28;;;9.87;100.00
59859;BME280;45734;53.648;9.566;2022-10-22T06:52:32;101026.38;;;9.96;100.00
59859;BME280;45734;53.648;9.566;2022-10-22T06:57:32;101032.91;;;10.02;100.00
59859;BME280;45734;53.648;9.566;2022-10-22T07:02:33;101033.31;;;10.07;100.00
59859;BME280;45734;53.648;9.566;2022-10-22T07:07:33;101043.78;;;10.26;100.00
59859;BME280;45734;53.648;9.566;2022-10-22T07:12:33;101057.13;;;10.44;100.00
59859;BME280;45734;53.648;9.566;2022-10-22T07:17:33;101057.59;;;10.57;100.00
59859;BME280;45734;53.648;9.566;2022-10-22T07:22:34;101062.38;;;10.72;100.00
59859;BME280;45734;53.648;9.566;2022-10-22T07:27:34;101062.78;;;11.03;100.00
59859;BME280;45734;53.648;9.566;2022-10-22T07:32:34;101077.00;;;11.38;100.00
59859;BME280;45734;53.648;9.566;2022-10-22T07:37:36;101073.53;;;11.45;100.00
59859;BME280;45734;53.648;9.566;2022-10-22T07:42:36;101078.75;;;11.55;100.00
59859;BME280;45734;53.648;9.566;2022-10-22T07:47:36;101083.78;;;11.66;100.00
59859;BME280;45734;53.648;9.566;2022-10-22T07:52:37;101088.69;;;11.79;100.00
59859;BME280;45734;53.648;9.566;2022-10-22T07:57:37;101086.28;;;11.94;100.00
59859;BME280;45734;53.648;9.566;2022-10-22T08:02:37;101097.53;;;12.14;100.00
59859;BME280;45734;53.648;9.566;2022-10-22T08:07:39;101114.09;;;12.26;100.00
59859;BME280;45734;53.648;9.566;2022-10-22T08:12:40;101120.97;;;12.53;100.00
59859;BME280;45734;53.648;9.566;2022-10-22T08:17:40;101123.66;;;14.30;100.00
59859;BME280;45734;53.648;9.566;2022-10-22T08:22:40;101130.50;;;15.77;100.00
59859;BME280;45734;53.648;9.566;2022-10-22T08:27:41;101133.78;;;16.81;100.00
59859;BME280;45734;53.648;9.566;2022-10-22T08:32:41;101135.94;;;17.42;100.00
59859;BME280;45734;53.648;9.566;2022-10-22T08:37:41;101143.41;;;17.40;100.00
59859;BME280;45734;53.648;9.566;2022-10-22T08:48:13;101142.81;;;17.16;100.00
59859;BME280;45734;53.648;9.566;2022-10-22T08:53:20;101140.41;;;17.28;100.00
59859;BME280;45734;53.648;9.566;2022-10-22T09:03:24;101146.66;;;17.98;100.00
59859;BME280;45734;53.648;9.566;2022-10-22T09:08:28;101138.44;;;18.20;100.00
59859;BME280;45734;53.648;9.566;2022-10-22T09:13:29;101141.63;;;18.43;100.00
59859;BME280;45734;53.648;9.566;2022-10-22T09:18:40;101135.47;;;18.56;100.00
59859;BME280;45734;53.648;9.566;2022-10-22T09:24:03;101146.03;;;18.44;100.00
59859;BME280;45734;53.648;9.566;2022-10-22T09:29:04;101148.06;;;18.42;100.00
59859;BME280;45734;53.648;9.566;2022-10-22T09:34:05;101141.22;;;18.40;100.00
59859;BME280;45734;53.648;9.566;2022-10-22T09:39:28;101143.09;;;18.46;100.00
59859;BME280;45734;53.648;9.566;2022-10-22T09:44:35;101145.72;;;18.19;100.00
59859;BME280;45734;53.648;9.566;2022-10-22T09:49:36;101151.34;;;17.83;100.00
59859;BME280;45734;53.648;9.566;2022-10-22T09:54:41;101152.22;;;17.62;100.00
59859;BME280;45734;53.648;9.566;2022-10-22T09:59:43;101149.19;;;17.72;100.00
59859;BME280;45734;53.648;9.566;2022-10-22T10:04:51;101146.63;;;17.92;100.00
59859;BME280;45734;53.648;9.566;2022-10-22T10:09:53;101136.06;;;17.97;100.00
59859;BME280;45734;53.648;9.566;2022-10-22T10:21:08;101152.47;;;18.02;100.00
59859;BME280;45734;53.648;9.566;2022-10-22T10:25:56;101156.22;;;18.01;100.00
59859;BME280;45734;53.648;9.566;2022-10-22T10:31:06;101153.94;;;18.04;100.00
59859;BME280;45734;53.648;9.566;2022-10-22T10:41:25;101151.69;;;18.15;100.00
59859;BME280;45734;53.648;9.566;2022-10-22T10:46:38;101149.25;;;18.20;100.00
59859;BME280;45734;53.648;9.566;2022-10-22T10:51:53;101156.53;;;18.26;100.00
59859;BME280;45734;53.648;9.566;2022-10-22T10:57:02;101157.16;;;18.28;100.00
59859;BME280;45734;53.648;9.566;2022-10-22T11:13:37;101164.56;;;18.13;100.00
59859;BME280;45734;53.648;9.566;2022-10-22T11:18:57;101182.81;;;18.17;100.00
59859;BME280;45734;53.648;9.566;2022-10-22T11:24:29;101172.09;;;18.24;100.00
59859;BME280;45734;53.648;9.566;2022-10-22T11:29:40;101169.59;;;18.29;100.00
59859;BME280;45734;53.648;9.566;2022-10-22T11:34:48;101162.56;;;18.41;100.00
59859;BME280;45734;53.648;9.566;2022-10-22T11:40:02;101163.44;;;18.48;100.00
59859;BME280;45734;53.648;9.566;2022-10-22T11:50:21;101165.63;;;18.93;100.00
59859;BME280;45734;53.648;9.566;2022-10-22T12:00:48;101170.22;;;19.12;100.00
59859;BME280;45734;53.648;9.566;2022-10-22T12:16:10;101170.53;;;18.56;100.00
59859;BME280;45734;53.648;9.566;2022-10-22T12:21:12;101173.59;;;18.40;100.00
59859;BME280;45734;53.648;9.566;2022-10-22T12:26:23;101166.31;;;18.33;100.00
59859;BME280;45734;53.648;9.566;2022-10-22T12:31:24;101171.28;;;18.30;100.00
59859;BME280;45734;53.648;9.566;2022-10-22T12:36:28;101167.13;;;18.27;100.00
59859;BME280;45734;53.648;9.566;2022-10-22T12:41:34;101175.00;;;18.29;100.00
59859;BME280;45734;53.648;9.566;2022-10-22T12:46:35;101173.97;;;18.30;100.00
59859;BME280;45734;53.648;9.566;2022-10-22T12:51:35;101177.09;;;18.40;100.00
59859;BME280;45734;53.648;9.566;2022-10-22T12:56:36;101169.25;;;18.45;100.00
59859;BME280;45734;53.648;9.566;2022-10-22T13:01:38;101176.75;;;18.57;100.00
59859;BME280;45734;53.648;9.566;2022-10-22T13:06:43;101178.00;;;18.67;100.00
59859;BME280;45734;53.648;9.566;2022-10-22T13:11:53;101191.31;;;18.62;100.00
59859;BME280;45734;53.648;9.566;2022-10-22T13:17:19;101184.22;;;18.61;100.00
59859;BME280;45734;53.648;9.566;2022-10-22T13:22:36;101197.69;;;18.54;100.00
59859;BME280;45734;53.648;9.566;2022-10-22T13:27:42;101186.66;;;18.36;100.00
59859;BME280;45734;53.648;9.566;2022-10-22T13:32:48;101176.63;;;18.23;100.00
59859;BME280;45734;53.648;9.566;2022-10-22T13:37:49;101179.50;;;18.15;100.00
59859;BME280;45734;53.648;9.566;2022-10-22T13:42:50;101174.47;;;18.05;100.00
59859;BME280;45734;53.648;9.566;2022-10-22T13:47:52;101181.47;;;17.93;100.00
59859;BME280;45734;53.648;9.566;2022-10-22T13:52:57;101181.31;;;17.73;100.00
59859;BME280;45734;53.648;9.566;2022-10-22T13:58:15;101184.50;;;17.55;100.00
59859;BME280;45734;53.648;9.566;2022-10-22T14:03:20;101186.53;;;17.47;100.00
59859;BME280;45734;53.648;9.566;2022-10-22T14:08:23;101183.28;;;17.30;100.00
59859;BME280;45734;53.648;9.566;2022-10-22T14:13:25;101181.19;;;17.04;100.00
59859;BME280;45734;53.648;9.566;2022-10-22T14:18:26;101188.22;;;16.83;100.00
59859;BME280;45734;53.648;9.566;2022-10-22T14:23:29;101181.66;;;16.71;100.00
59859;BME280;45734;53.648;9.566;2022-10-22T14:28:30;101185.09;;;16.80;100.00
59859;BME280;45734;53.648;9.566;2022-10-22T14:33:31;101190.34;;;16.88;100.00
59859;BME280;45734;53.648;9.566;2022-10-22T14:38:32;101190.34;;;16.88;100.00
59859;BME280;45734;53.648;9.566;2022-10-22T14:43:33;101190.88;;;16.77;100.00
59859;BME280;45734;53.648;9.566;2022-10-22T14:48:33;101198.22;;;16.53;100.00
59859;BME280;45734;53.648;9.566;2022-10-22T14:53:33;101194.03;;;16.29;100.00
59859;BME280;45734;53.648;9.566;2022-10-22T14:58:33;101192.34;;;16.13;100.00
59859;BME280;45734;53.648;9.566;2022-10-22T15:03:34;101205.88;;;16.05;100.00
59859;BME280;45734;53.648;9.566;2022-10-22T15:08:35;101211.34;;;15.97;100.00
59859;BME280;45734;53.648;9.566;2022-10-22T15:13:35;101223.03;;;15.89;100.00
59859;BME280;45734;53.648;9.566;2022-10-22T15:18:36;101222.75;;;15.84;100.00
59859;BME280;45734;53.648;9.566;2022-10-22T15:23:36;101227.19;;;15.77;100.00
59859;BME280;45734;53.648;9.566;2022-10-22T15:28:38;101237.81;;;15.70;100.00
59859;BME280;45734;53.648;9.566;2022-10-22T15:33:40;101232.69;;;15.60;100.00
59859;BME280;45734;53.648;9.566;2022-10-22T15:38:41;101234.25;;;15.55;100.00
59859;BME280;45734;53.648;9.566;2022-10-22T15:43:41;101246.53;;;15.49;100.00
59859;BME280;45734;53.648;9.566;2022-10-22T15:48:42;101251.13;;;15.40;100.00
59859;BME280;45734;53.648;9.566;2022-10-22T15:53:43;101259.56;;;15.37;100.00
59859;BME280;45734;53.648;9.566;2022-10-22T15:58:43;101269.00;;;15.33;100.00
59859;BME280;45734;53.648;9.566;2022-10-22T16:03:44;101269.72;;;15.27;100.00
59859;BME280;45734;53.648;9.566;2022-10-22T16:08:44;101274.09;;;15.20;100.00
59859;BME280;45734;53.648;9.566;2022-10-22T16:13:44;101271.97;;;15.15;100.00
59859;BME280;45734;53.648;9.566;2022-10-22T16:18:44;101272.03;;;15.07;100.00
59859;BME280;45734;53.648;9.566;2022-10-22T16:23:45;101285.97;;;15.03;100.00
59859;BME280;45734;53.648;9.566;2022-10-22T16:28:47;101293.53;;;14.99;100.00
59859;BME280;45734;53.648;9.566;2022-10-22T16:33:47;101301.09;;;14.96;100.00
59859;BME280;45734;53.648;9.566;2022-10-22T16:38:48;101311.31;;;14.92;100.00
59859;BME280;45734;53.648;9.566;2022-10-22T16:43:50;101315.88;;;14.91;100.00
59859;BME280;45734;53.648;9.566;2022-10-22T16:48:51;101328.44;;;14.91;100.00
59859;BME280;45734;53.648;9.566;2022-10-22T16:53:53;101327.97;;;14.87;100.00
59859;BME280;45734;53.648;9.566;2022-10-22T16:58:56;101322.28;;;14.82;100.00
59859;BME280;45734;53.648;9.566;2022-10-22T17:03:59;101331.50;;;14.80;100.00
59859;BME280;45734;53.648;9.566;2022-10-22T17:08:59;101334.72;;;14.75;100.00
59859;BME280;45734;53.648;9.566;2022-10-22T17:14:00;101333.94;;;14.66;100.00
59859;BME280;45734;53.648;9.566;2022-10-22T17:19:02;101344.50;;;14.60;100.00
59859;BME280;45734;53.648;9.566;2022-10-22T17:24:03;101351.53;;;14.44;100.00
59859;BME280;45734;53.648;9.566;2022-10-22T17:29:03;101351.56;;;14.36;100.00
59859;BME280;45734;53.648;9.566;2022-10-22T17:34:09;101365.84;;;14.29;100.00
59859;BME280;45734;53.648;9.566;2022-10-22T17:39:15;101367.69;;;14.20;100.00
59859;BME280;45734;53.648;9.566;2022-10-22T17:44:18;101366.69;;;14.13;100.00
59859;BME280;45734;53.648;9.566;2022-10-22T17:49:21;101378.06;;;14.07;100.00
59859;BME280;45734;53.648;9.566;2022-10-22T17:54:21;101384.25;;;13.99;100.00
59859;BME280;45734;53.648;9.566;2022-10-22T17:59:22;101389.78;;;13.89;100.00
59859;BME280;45734;53.648;9.566;2022-10-22T18:04:22;101398.16;;;13.78;100.00
59859;BME280;45734;53.648;9.566;2022-10-22T18:09:23;101397.81;;;13.73;100.00
59859;BME280;45734;53.648;9.566;2022-10-22T18:14:24;101409.72;;;13.70;100.00
59859;BME280;45734;53.648;9.566;2022-10-22T18:19:24;101407.00;;;13.62;100.00
59859;BME280;45734;53.648;9.566;2022-10-22T18:24:24;101408.50;;;13.56;100.00
59859;BME280;45734;53.648;9.566;2022-10-22T18:29:25;101413.47;;;13.43;100.00
59859;BME280;45734;53.648;9.566;2022-10-22T18:34:25;101420.81;;;13.33;100.00
59859;BME280;45734;53.648;9.566;2022-10-22T18:39:25;101419.50;;;13.37;100.00
59859;BME280;45734;53.648;9.566;2022-10-22T18:44:26;101418.19;;;13.41;100.00
59859;BME280;45734;53.648;9.566;2022-10-22T18:49:26;101417.00;;;13.44;100.00
59859;BME280;45734;53.648;9.566;2022-10-22T18:54:26;101422.34;;;13.44;100.00
59859;BME280;45734;53.648;9.566;2022-10-22T18:59:27;101425.88;;;13.44;100.00
59859;BME280;45734;53.648;9.566;2022-10-22T19:04:28;101431.22;;;13.44;100.00
59859;BME280;45734;53.648;9.566;2022-10-22T19:09:32;101431.72;;;13.40;100.00
59859;BME280;45734;53.648;9.566;2022-10-22T19:14:32;101429.19;;;13.30;100.00
59859;BME280;45734;53.648;9.566;2022-10-22T19:19:32;101431.28;;;13.18;100.00
59859;BME280;45734;53.648;9.566;2022-10-22T19:24:33;101433.91;;;13.10;100.00
59859;BME280;45734;53.648;9.566;2022-10-22T19:29:35;101436.91;;;13.07;100.00
59859;BME280;45734;53.648;9.566;2022-10-22T19:34:35;101441.91;;;13.02;100.00
59859;BME280;45734;53.648;9.566;2022-10-22T19:39:36;101446.75;;;12.98;100.00
59859;BME280;45734;53.648;9.566;2022-10-22T19:44:36;101443.00;;;12.91;100.00
59859;BME280;45734;53.648;9.566;2022-10-22T19:49:36;101453.69;;;12.83;100.00
59859;BME280;45734;53.648;9.566;2022-10-22T19:54:37;101467.84;;;12.75;100.00
59859;BME280;45734;53.648;9.566;2022-10-22T19:59:39;101477.31;;;12.69;100.00
59859;BME280;45734;53.648;9.566;2022-10-22T20:04:40;101482.28;;;12.64;100.00
59859;BME280;45734;53.648;9.566;2022-10-22T20:09:40;101481.06;;;12.59;100.00
59859;BME280;45734;53.648;9.566;2022-10-22T20:14:41;101489.72;;;12.53;100.00
59859;BME280;45734;53.648;9.566;2022-10-22T20:19:41;101478.13;;;12.44;100.00
59859;BME280;45734;53.648;9.566;2022-10-22T20:24:43;101494.09;;;12.36;100.00
59859;BME280;45734;53.648;9.566;2022-10-22T20:29:43;101495.03;;;12.27;100.00
59859;BME280;45734;53.648;9.566;2022-10-22T20:34:44;101493.28;;;12.17;100.00
59859;BME280;45734;53.648;9.566;2022-10-22T20:39:44;101503.34;;;12.06;100.00
59859;BME280;45734;53.648;9.566;2022-10-22T20:44:44;101502.72;;;11.94;100.00
59859;BME280;45734;53.648;9.566;2022-10-22T20:49:45;101504.59;;;11.84;100.00
59859;BME280;45734;53.648;9.566;2022-10-22T20:54:45;101507.19;;;11.75;100.00
59859;BME280;45734;53.648;9.566;2022-10-22T20:59:45;101517.06;;;11.65;100.00
59859;BME280;45734;53.648;9.566;2022-10-22T21:04:46;101510.25;;;11.53;100.00
59859;BME280;45734;53.648;9.566;2022-10-22T21:09:46;101511.16;;;11.44;100.00
59859;BME280;45734;53.648;9.566;2022-10-22T21:14:47;101514.16;;;11.31;100.00
59859;BME280;45734;53.648;9.566;2022-10-22T21:19:47;101513.38;;;11.21;100.00
59859;BME280;45734;53.648;9.566;2022-10-22T21:24:47;101517.34;;;11.07;100.00
59859;BME280;45734;53.648;9.566;2022-10-22T21:29:48;101516.53;;;10.97;100.00
59859;BME280;45734;53.648;9.566;2022-10-22T21:34:48;101513.63;;;10.80;100.00
59859;BME280;45734;53.648;9.566;2022-10-22T21:39:48;101522.47;;;10.71;100.00
59859;BME280;45734;53.648;9.566;2022-10-22T21:44:48;101514.94;;;10.57;100.00
59859;BME280;45734;53.648;9.566;2022-10-22T21:49:49;101510.47;;;10.48;100.00
59859;BME280;45734;53.648;9.566;2022-10-22T21:54:49;101518.88;;;10.43;100.00
59859;BME280;45734;53.648;9.566;2022-10-22T21:59:49;101503.72;;;10.34;100.00
59859;BME280;45734;53.648;9.566;2022-10-22T22:04:50;101509.91;;;10.34;100.00
59859;BME280;45734;53.648;9.566;2022-10-22T22:09:53;101507.94;;;10.36;100.00
59859;BME280;45734;53.648;9.566;2022-10-22T22:14:54;101517.59;;;10.37;100.00
59859;BME280;45734;53.648;9.566;2022-10-22T22:19:54;101517.03;;;10.34;100.00
59859;BME280;45734;53.648;9.566;2022-10-22T22:24:54;101519.00;;;10.32;100.00
59859;BME280;45734;53.648;9.566;2022-10-22T22:29:55;101513.25;;;10.27;100.00
59859;BME280;45734;53.648;9.566;2022-10-22T22:34:55;101516.78;;;10.27;100.00
59859;BME280;45734;53.648;9.566;2022-10-22T22:39:55;101515.91;;;10.27;100.00
59859;BME280;45734;53.648;9.566;2022-10-22T22:44:56;101518.00;;;10.23;100.00
59859;BME280;45734;53.648;9.566;2022-10-22T22:49:56;101513.66;;;10.22;100.00
59859;BME280;45734;53.648;9.566;2022-10-22T22:54:57;101514.66;;;10.21;100.00
59859;BME280;45734;53.648;9.566;2022-10-22T22:59:57;101516.59;;;10.19;100.00
59859;BME280;45734;53.648;9.566;2022-10-22T23:04:58;101513.09;;;10.18;100.00
59859;BME280;45734;53.648;9.566;2022-10-22T23:09:58;101512.66;;;10.23;100.00
59859;BME280;45734;53.648;9.566;2022-10-22T23:14:58;101514.22;;;10.26;100.00
59859;BME280;45734;53.648;9.566;2022-10-22T23:20:01;101521.66;;;10.22;100.00
59859;BME280;45734;53.648;9.566;2022-10-22T23:25:01;101511.56;;;10.16;100.00
59859;BME280;45734;53.648;9.566;2022-10-22T23:30:02;101521.91;;;10.09;100.00
59859;BME280;45734;53.648;9.566;2022-10-22T23:35:03;101527.38;;;10.08;100.00
59859;BME280;45734;53.648;9.566;2022-10-22T23:40:03;101523.88;;;10.07;100.00
59859;BME280;45734;53.648;9.566;2022-10-22T23:45:04;101521.06;;;10.09;100.00
59859;BME280;45734;53.648;9.566;2022-10-22T23:50:05;101521.22;;;10.07;100.00
59859;BME280;45734;53.648;9.566;2022-10-22T23:55:06;101520.78;;;10.02;100.00
